sensor_id;sensor_type;location;lat;lon;timestamp;temperature;humidity
46217;DHT22;47258;59.424;13.482;2022-11-24T00:02:07;1.60;99.90
46217;DHT22;47258;59.424;13.482;2022-11-24T00:04:35;1.60;99.90
46217;DHT22;47258;59.424;13.482;2022-11-24T00:07:02;1.60;99.90
46217;DHT22;47258;59.424;13.482;2022-11-24T00:09:31;1.60;99.90
46217;DHT22;47258;59.424;13.482;2022-11-24T00:11:58;1.50;99.90
46217;DHT22;47258;59.424;13.482;2022-11-24T00:14:25;1.50;99.90
46217;DHT22;47258;59.424;13.482;2022-11-24T00:16:52;1.50;99.90
46217;DHT22;47258;59.424;13.482;2022-11-24T00:19:20;1.50;99.90
46217;DHT22;47258;59.424;13.482;2022-11-24T00:21:47;1.50;99.90
46217;DHT22;47258;59.424;13.482;2022-11-24T00:24:14;1.50;99.90
46217;DHT22;47258;59.424;13.482;2022-11-24T00:26:42;1.50;99.90
46217;DHT22;47258;59.424;13.482;2022-11-24T00:29:10;1.50;99.90
46217;DHT22;47258;59.424;13.482;2022-11-24T00:31:38;1.50;99.90
46217;DHT22;47258;59.424;13.482;2022-11-24T00:34:08;1.50;99.90
46217;DHT22;47258;59.424;13.482;2022-11-24T00:36:36;1.50;99.90
46217;DHT22;47258;59.424;13.482;2022-11-24T00:39:05;1.50;99.90
46217;DHT22;47258;59.424;13.482;2022-11-24T00:41:33;1.50;99.90
46217;DHT22;47258;59.424;13.482;2022-11-24T00:44:02;1.50;99.90
46217;DHT22;47258;59.424;13.482;2022-11-24T00:46:29;1.50;99.90
46217;DHT22;47258;59.424;13.482;2022-11-24T00:48:56;1.50;99.90
46217;DHT22;47258;59.424;13.482;2022-11-24T00:51:25;1.50;99.90
46217;DHT22;47258;59.424;13.482;2022-11-24T00:53:54;1.50;99.90
46217;DHT22;47258;59.424;13.482;2022-11-24T00:56:22;1.50;99.90
46217;DHT22;47258;59.424;13.482;2022-11-24T00:58:49;1.50;99.90
46217;DHT22;47258;59.424;13.482;2022-11-24T01:01:19;1.50;99.90
46217;DHT22;47258;59.424;13.482;2022-11-24T01:03:47;1.50;99.90
46217;DHT22;47258;59.424;13.482;2022-11-24T01:06:17;1.50;99.90
46217;DHT22;47258;59.424;13.482;2022-11-24T01:08:45;1.60;99.90
46217;DHT22;47258;59.424;13.482;2022-11-24T01:11:14;1.60;99.90
46217;DHT22;47258;59.424;13.482;2022-11-24T01:13:43;1.60;99.90
46217;DHT22;47258;59.424;13.482;2022-11-24T01:16:16;1.60;99.90
46217;DHT22;47258;59.424;13.482;2022-11-24T01:18:45;1.50;99.90
46217;DHT22;47258;59.424;13.482;2022-11-24T01:21:13;1.50;99.90
46217;DHT22;47258;59.424;13.482;2022-11-24T01:23:40;1.50;99.90
46217;DHT22;47258;59.424;13.482;2022-11-24T01:26:09;1.50;99.90
46217;DHT22;47258;59.424;13.482;2022-11-24T01:28:36;1.50;99.90
46217;DHT22;47258;59.424;13.482;2022-11-24T01:31:06;1.50;99.90
46217;DHT22;47258;59.424;13.482;2022-11-24T01:33:34;1.50;99.90
46217;DHT22;47258;59.424;13.482;2022-11-24T01:36:03;1.50;99.90
46217;DHT22;47258;59.424;13.482;2022-11-24T01:38:31;1.50;99.90
46217;DHT22;47258;59.424;13.482;2022-11-24T01:41:02;1.50;99.90
46217;DHT22;47258;59.424;13.482;2022-11-24T01:43:30;1.50;99.90
46217;DHT22;47258;59.424;13.482;2022-11-24T01:46:02;1.50;99.90
46217;DHT22;47258;59.424;13.482;2022-11-24T01:48:33;1.50;99.90
46217;DHT22;47258;59.424;13.482;2022-11-24T01:51:08;1.50;99.90
46217;DHT22;47258;59.424;13.482;2022-11-24T01:53:37;1.50;99.90
46217;DHT22;47258;59.424;13.482;2022-11-24T01:56:06;1.50;99.90
46217;DHT22;47258;59.424;13.482;2022-11-24T01:58:34;1.50;99.90
46217;DHT22;47258;59.424;13.482;2022-11-24T02:01:02;1.50;99.90
46217;DHT22;47258;59.424;13.482;2022-11-24T02:03:35;1.50;99.90
46217;DHT22;47258;59.424;13.482;2022-11-24T02:06:07;1.50;99.90
46217;DHT22;47258;59.424;13.482;2022-11-24T02:08:41;1.50;99.90
46217;DHT22;47258;59.424;13.482;2022-11-24T02:11:09;1.50;99.90
46217;DHT22;47258;59.424;13.482;2022-11-24T02:13:37;1.60;99.90
46217;DHT22;47258;59.424;13.482;2022-11-24T02:16:07;1.60;99.90
46217;DHT22;47258;59.424;13.482;2022-11-24T02:18:36;1.60;99.90
46217;DHT22;47258;59.424;13.482;2022-11-24T02:21:05;1.60;99.90
46217;DHT22;47258;59.424;13.482;2022-11-24T02:23:38;1.60;99.90
46217;DHT22;47258;59.424;13.482;2022-11-24T02:26:12;1.60;99.90
46217;DHT22;47258;59.424;13.482;2022-11-24T02:28:43;1.60;99.90
46217;DHT22;47258;59.424;13.482;2022-11-24T02:31:11;1.60;99.90
46217;DHT22;47258;59.424;13.482;2022-11-24T02:33:39;1.60;99.90
46217;DHT22;47258;59.424;13.482;2022-11-24T02:36:07;1.60;99.90
46217;DHT22;47258;59.424;13.482;2022-11-24T02:38:35;1.60;99.90
46217;DHT22;47258;59.424;13.482;2022-11-24T02:41:04;1.60;99.90
46217;DHT22;47258;59.424;13.482;2022-11-24T02:43:34;1.60;99.90
46217;DHT22;47258;59.424;13.482;2022-11-24T02:46:04;1.60;99.90
46217;DHT22;47258;59.424;13.482;2022-11-24T02:48:31;1.60;99.90
46217;DHT22;47258;59.424;13.482;2022-11-24T02:50:58;1.60;99.90
46217;DHT22;47258;59.424;13.482;2022-11-24T02:53:25;1.60;99.90
46217;DHT22;47258;59.424;13.482;2022-11-24T02:55:52;1.60;99.90
46217;DHT22;47258;59.424;13.482;2022-11-24T02:58:20;1.60;99.90
46217;DHT22;47258;59.424;13.482;2022-11-24T03:00:47;1.70;99.90
46217;DHT22;47258;59.424;13.482;2022-11-24T03:03:15;1.70;99.90
46217;DHT22;47258;59.424;13.482;2022-11-24T03:05:42;1.70;99.90
46217;DHT22;47258;59.424;13.482;2022-11-24T03:08:09;1.70;99.90
46217;DHT22;47258;59.424;13.482;2022-11-24T03:10:37;1.70;99.90
46217;DHT22;47258;59.424;13.482;2022-11-24T03:13:04;1.80;99.90
46217;DHT22;47258;59.424;13.482;2022-11-24T03:15:31;1.80;99.90
46217;DHT22;47258;59.424;13.482;2022-11-24T03:17:58;1.80;99.90
46217;DHT22;47258;59.424;13.482;2022-11-24T03:20:27;1.80;99.90
46217;DHT22;47258;59.424;13.482;2022-11-24T03:22:55;1.80;99.90
46217;DHT22;47258;59.424;13.482;2022-11-24T03:25:22;1.90;99.90
46217;DHT22;47258;59.424;13.482;2022-11-24T03:27:49;1.90;99.90
46217;DHT22;47258;59.424;13.482;2022-11-24T03:30:17;1.90;99.90
46217;DHT22;47258;59.424;13.482;2022-11-24T03:32:44;1.90;99.90
46217;DHT22;47258;59.424;13.482;2022-11-24T03:35:11;1.90;99.90
46217;DHT22;47258;59.424;13.482;2022-11-24T03:37:39;1.90;99.90
46217;DHT22;47258;59.424;13.482;2022-11-24T03:40:08;1.90;99.90
46217;DHT22;47258;59.424;13.482;2022-11-24T03:42:35;1.90;99.90
46217;DHT22;47258;59.424;13.482;2022-11-24T03:45:03;1.90;99.90
46217;DHT22;47258;59.424;13.482;2022-11-24T03:47:30;1.90;99.90
46217;DHT22;47258;59.424;13.482;2022-11-24T03:49:57;1.90;99.90
46217;DHT22;47258;59.424;13.482;2022-11-24T03:52:24;1.90;99.90
46217;DHT22;47258;59.424;13.482;2022-11-24T03:54:53;1.90;99.90
46217;DHT22;47258;59.424;13.482;2022-11-24T03:57:20;2.00;99.90
46217;DHT22;47258;59.424;13.482;2022-11-24T03:59:47;2.00;99.90
46217;DHT22;47258;59.424;13.482;2022-11-24T04:02:14;2.00;99.90
46217;DHT22;47258;59.424;13.482;2022-11-24T04:04:41;2.00;99.90
46217;DHT22;47258;59.424;13.482;2022-11-24T04:07:08;2.00;99.90
46217;DHT22;47258;59.424;13.482;2022-11-24T04:09:35;2.00;99.90
46217;DHT22;47258;59.424;13.482;2022-11-24T04:12:04;2.00;99.90
46217;DHT22;47258;59.424;13.482;2022-11-24T04:14:48;1.90;99.90
46217;DHT22;47258;59.424;13.482;2022-11-24T04:17:15;1.90;99.90
46217;DHT22;47258;59.424;13.482;2022-11-24T04:19:42;1.90;99.90
46217;DHT22;47258;59.424;13.482;2022-11-24T04:22:09;1.90;99.90
46217;DHT22;47258;59.424;13.482;2022-11-24T04:24:36;1.90;99.90
46217;DHT22;47258;59.424;13.482;2022-11-24T04:27:04;1.90;99.90
46217;DHT22;47258;59.424;13.482;2022-11-24T04:29:31;1.90;99.90
46217;DHT22;47258;59.424;13.482;2022-11-24T04:31:58;2.00;99.90
46217;DHT22;47258;59.424;13.482;2022-11-24T04:34:25;2.00;99.90
46217;DHT22;47258;59.424;13.482;2022-11-24T04:36:52;2.00;99.90
46217;DHT22;47258;59.424;13.482;2022-11-24T04:39:19;2.00;99.90
46217;DHT22;47258;59.424;13.482;2022-11-24T04:41:46;1.90;99.90
46217;DHT22;47258;59.424;13.482;2022-11-24T04:44:14;1.90;99.90
46217;DHT22;47258;59.424;13.482;2022-11-24T04:46:41;2.00;99.90
46217;DHT22;47258;59.424;13.482;2022-11-24T04:49:08;2.00;99.90
46217;DHT22;47258;59.424;13.482;2022-11-24T04:51:36;2.00;99.90
46217;DHT22;47258;59.424;13.482;2022-11-24T04:54:03;2.00;99.90
46217;DHT22;47258;59.424;13.482;2022-11-24T04:56:30;2.00;99.90
46217;DHT22;47258;59.424;13.482;2022-11-24T04:58:57;1.90;99.90
46217;DHT22;47258;59.424;13.482;2022-11-24T05:01:26;1.90;99.90
46217;DHT22;47258;59.424;13.482;2022-11-24T05:03:53;1.90;99.90
46217;DHT22;47258;59.424;13.482;2022-11-24T05:06:20;1.90;99.90
46217;DHT22;47258;59.424;13.482;2022-11-24T05:08:48;1.90;99.90
46217;DHT22;47258;59.424;13.482;2022-11-24T05:11:15;1.90;99.90
46217;DHT22;47258;59.424;13.482;2022-11-24T05:13:42;1.90;99.90
46217;DHT22;47258;59.424;13.482;2022-11-24T05:16:10;1.90;99.90
46217;DHT22;47258;59.424;13.482;2022-11-24T05:18:38;1.90;99.90
46217;DHT22;47258;59.424;13.482;2022-11-24T05:21:05;1.90;99.90
46217;DHT22;47258;59.424;13.482;2022-11-24T05:23:32;1.90;99.90
46217;DHT22;47258;59.424;13.482;2022-11-24T05:25:59;1.90;99.90
46217;DHT22;47258;59.424;13.482;2022-11-24T05:28:27;1.90;99.90
46217;DHT22;47258;59.424;13.482;2022-11-24T05:30:57;1.90;99.90
46217;DHT22;47258;59.424;13.482;2022-11-24T05:33:24;1.90;99.90
46217;DHT22;47258;59.424;13.482;2022-11-24T05:35:54;1.90;99.90
46217;DHT22;47258;59.424;13.482;2022-11-24T05:38:21;1.90;99.90
46217;DHT22;47258;59.424;13.482;2022-11-24T05:40:48;1.90;99.90
46217;DHT22;47258;59.424;13.482;2022-11-24T05:43:16;1.90;99.90
46217;DHT22;47258;59.424;13.482;2022-11-24T05:45:43;1.90;99.90
46217;DHT22;47258;59.424;13.482;2022-11-24T05:48:12;1.90;99.90
46217;DHT22;47258;59.424;13.482;2022-11-24T05:50:39;2.00;99.90
46217;DHT22;47258;59.424;13.482;2022-11-24T05:53:10;2.00;99.90
46217;DHT22;47258;59.424;13.482;2022-11-24T05:55:38;2.00;99.90
46217;DHT22;47258;59.424;13.482;2022-11-24T05:58:06;2.00;99.90
46217;DHT22;47258;59.424;13.482;2022-11-24T06:00:34;2.00;99.90
46217;DHT22;47258;59.424;13.482;2022-11-24T06:03:02;2.00;99.90
46217;DHT22;47258;59.424;13.482;2022-11-24T06:05:29;2.00;99.90
46217;DHT22;47258;59.424;13.482;2022-11-24T06:07:58;2.00;99.90
46217;DHT22;47258;59.424;13.482;2022-11-24T06:10:26;2.00;99.90
46217;DHT22;47258;59.424;13.482;2022-11-24T06:12:54;2.00;99.90
46217;DHT22;47258;59.424;13.482;2022-11-24T06:15:21;2.00;99.90
46217;DHT22;47258;59.424;13.482;2022-11-24T06:17:52;2.00;99.90
46217;DHT22;47258;59.424;13.482;2022-11-24T06:20:20;2.00;99.90
46217;DHT22;47258;59.424;13.482;2022-11-24T06:22:47;2.00;99.90
46217;DHT22;47258;59.424;13.482;2022-11-24T06:25:14;2.00;99.90
46217;DHT22;47258;59.424;13.482;2022-11-24T06:27:43;2.00;99.90
46217;DHT22;47258;59.424;13.482;2022-11-24T06:30:12;2.00;99.90
46217;DHT22;47258;59.424;13.482;2022-11-24T06:32:39;2.00;99.90
46217;DHT22;47258;59.424;13.482;2022-11-24T06:35:10;1.90;99.90
46217;DHT22;47258;59.424;13.482;2022-11-24T06:37:37;1.90;99.90
46217;DHT22;47258;59.424;13.482;2022-11-24T06:40:05;1.90;99.90
46217;DHT22;47258;59.424;13.482;2022-11-24T06:42:34;1.90;99.90
46217;DHT22;47258;59.424;13.482;2022-11-24T06:45:03;1.90;99.90
46217;DHT22;47258;59.424;13.482;2022-11-24T06:47:30;1.90;99.90
46217;DHT22;47258;59.424;13.482;2022-11-24T06:49:57;1.90;99.90
46217;DHT22;47258;59.424;13.482;2022-11-24T06:52:24;1.90;99.90
46217;DHT22;47258;59.424;13.482;2022-11-24T06:54:51;1.90;99.90
46217;DHT22;47258;59.424;13.482;2022-11-24T06:57:18;1.90;99.90
46217;DHT22;47258;59.424;13.482;2022-11-24T06:59:45;1.90;99.90
46217;DHT22;47258;59.424;13.482;2022-11-24T07:02:14;1.90;99.90
46217;DHT22;47258;59.424;13.482;2022-11-24T07:04:41;1.90;99.90
46217;DHT22;47258;59.424;13.482;2022-11-24T07:07:08;1.90;99.90
46217;DHT22;47258;59.424;13.482;2022-11-24T07:09:35;2.00;99.90
46217;DHT22;47258;59.424;13.482;2022-11-24T07:12:02;2.00;99.90
46217;DHT22;47258;59.424;13.482;2022-11-24T07:14:30;2.00;99.90
46217;DHT22;47258;59.424;13.482;2022-11-24T07:16:57;2.00;99.90
46217;DHT22;47258;59.424;13.482;2022-11-24T07:19:25;2.00;99.90
46217;DHT22;47258;59.424;13.482;2022-11-24T07:21:52;2.10;99.90
46217;DHT22;47258;59.424;13.482;2022-11-24T07:24:19;2.00;99.90
46217;DHT22;47258;59.424;13.482;2022-11-24T07:26:46;2.00;99.90
46217;DHT22;47258;59.424;13.482;2022-11-24T07:29:13;2.00;99.90
46217;DHT22;47258;59.424;13.482;2022-11-24T07:31:40;2.00;99.90
46217;DHT22;47258;59.424;13.482;2022-11-24T07:34:07;2.00;99.90
46217;DHT22;47258;59.424;13.482;2022-11-24T07:36:35;2.00;99.90
46217;DHT22;47258;59.424;13.482;2022-11-24T07:39:04;2.00;99.90
46217;DHT22;47258;59.424;13.482;2022-11-24T07:41:31;2.00;99.90
46217;DHT22;47258;59.424;13.482;2022-11-24T07:43:58;2.00;99.90
46217;DHT22;47258;59.424;13.482;2022-11-24T07:46:25;2.00;99.90
46217;DHT22;47258;59.424;13.482;2022-11-24T07:48:52;2.00;99.90
46217;DHT22;47258;59.424;13.482;2022-11-24T07:51:19;2.00;99.90
46217;DHT22;47258;59.424;13.482;2022-11-24T07:53:47;2.00;99.90
46217;DHT22;47258;59.424;13.482;2022-11-24T07:56:14;2.00;99.90
46217;DHT22;47258;59.424;13.482;2022-11-24T07:58:41;2.00;99.90
46217;DHT22;47258;59.424;13.482;2022-11-24T08:01:12;2.00;99.90
46217;DHT22;47258;59.424;13.482;2022-11-24T08:03:39;2.00;99.90
46217;DHT22;47258;59.424;13.482;2022-11-24T08:06:07;2.00;99.90
46217;DHT22;47258;59.424;13.482;2022-11-24T08:08:34;2.10;99.90
46217;DHT22;47258;59.424;13.482;2022-11-24T08:11:06;2.00;99.90
46217;DHT22;47258;59.424;13.482;2022-11-24T08:13:34;2.10;99.90
46217;DHT22;47258;59.424;13.482;2022-11-24T08:16:05;2.10;99.90
46217;DHT22;47258;59.424;13.482;2022-11-24T08:18:32;2.10;99.90
46217;DHT22;47258;59.424;13.482;2022-11-24T08:20:59;2.10;99.90
46217;DHT22;47258;59.424;13.482;2022-11-24T08:23:26;2.10;99.90
46217;DHT22;47258;59.424;13.482;2022-11-24T08:25:54;2.10;99.90
46217;DHT22;47258;59.424;13.482;2022-11-24T08:28:23;2.10;99.90
46217;DHT22;47258;59.424;13.482;2022-11-24T08:30:50;2.10;99.90
46217;DHT22;47258;59.424;13.482;2022-11-24T08:33:17;2.10;99.90
46217;DHT22;47258;59.424;13.482;2022-11-24T08:35:44;2.10;99.90
46217;DHT22;47258;59.424;13.482;2022-11-24T08:38:11;2.10;99.90
46217;DHT22;47258;59.424;13.482;2022-11-24T08:40:37;2.10;99.90
46217;DHT22;47258;59.424;13.482;2022-11-24T08:43:04;2.10;99.90
46217;DHT22;47258;59.424;13.482;2022-11-24T08:45:33;2.10;99.90
46217;DHT22;47258;59.424;13.482;2022-11-24T08:47:59;2.10;99.90
46217;DHT22;47258;59.424;13.482;2022-11-24T08:50:26;2.20;99.90
46217;DHT22;47258;59.424;13.482;2022-11-24T08:52:53;2.20;99.90
46217;DHT22;47258;59.424;13.482;2022-11-24T08:55:20;2.20;99.90
46217;DHT22;47258;59.424;13.482;2022-11-24T08:57:47;2.30;99.90
46217;DHT22;47258;59.424;13.482;2022-11-24T09:00:15;2.30;99.90
46217;DHT22;47258;59.424;13.482;2022-11-24T09:02:54;2.20;99.90
46217;DHT22;47258;59.424;13.482;2022-11-24T09:05:21;2.20;99.90
46217;DHT22;47258;59.424;13.482;2022-11-24T09:07:48;2.20;99.90
46217;DHT22;47258;59.424;13.482;2022-11-24T09:10:15;2.20;99.90
46217;DHT22;47258;59.424;13.482;2022-11-24T09:12:43;2.20;99.90
46217;DHT22;47258;59.424;13.482;2022-11-24T09:15:11;2.30;99.90
46217;DHT22;47258;59.424;13.482;2022-11-24T09:17:38;2.30;99.90
46217;DHT22;47258;59.424;13.482;2022-11-24T09:20:07;2.30;99.90
46217;DHT22;47258;59.424;13.482;2022-11-24T09:22:34;2.20;99.90
46217;DHT22;47258;59.424;13.482;2022-11-24T09:25:03;2.30;99.90
46217;DHT22;47258;59.424;13.482;2022-11-24T09:27:30;2.20;99.90
46217;DHT22;47258;59.424;13.482;2022-11-24T09:29:57;2.20;99.90
46217;DHT22;47258;59.424;13.482;2022-11-24T09:32:24;2.30;99.90
46217;DHT22;47258;59.424;13.482;2022-11-24T09:34:51;2.30;99.90
46217;DHT22;47258;59.424;13.482;2022-11-24T09:37:19;2.30;99.90
46217;DHT22;47258;59.424;13.482;2022-11-24T09:39:46;2.40;99.90
46217;DHT22;47258;59.424;13.482;2022-11-24T09:42:14;2.50;99.90
46217;DHT22;47258;59.424;13.482;2022-11-24T09:44:54;2.50;99.90
46217;DHT22;47258;59.424;13.482;2022-11-24T09:47:33;2.50;99.90
46217;DHT22;47258;59.424;13.482;2022-11-24T09:50:07;2.50;99.90
46217;DHT22;47258;59.424;13.482;2022-11-24T09:52:43;2.50;99.90
46217;DHT22;47258;59.424;13.482;2022-11-24T09:55:22;2.50;99.90
46217;DHT22;47258;59.424;13.482;2022-11-24T09:58:00;2.50;99.90
46217;DHT22;47258;59.424;13.482;2022-11-24T10:00:29;2.60;99.90
46217;DHT22;47258;59.424;13.482;2022-11-24T10:02:56;2.60;99.90
46217;DHT22;47258;59.424;13.482;2022-11-24T10:05:25;2.60;99.90
46217;DHT22;47258;59.424;13.482;2022-11-24T10:08:06;2.70;99.90
46217;DHT22;47258;59.424;13.482;2022-11-24T10:10:43;2.70;99.90
46217;DHT22;47258;59.424;13.482;2022-11-24T10:13:25;2.70;99.90
46217;DHT22;47258;59.424;13.482;2022-11-24T10:15:59;2.70;99.90
46217;DHT22;47258;59.424;13.482;2022-11-24T10:18:37;2.70;99.90
46217;DHT22;47258;59.424;13.482;2022-11-24T10:21:26;2.70;99.90
46217;DHT22;47258;59.424;13.482;2022-11-24T10:24:13;2.70;99.90
46217;DHT22;47258;59.424;13.482;2022-11-24T10:26:50;2.70;99.90
46217;DHT22;47258;59.424;13.482;2022-11-24T10:29:25;2.70;99.90
46217;DHT22;47258;59.424;13.482;2022-11-24T10:31:55;2.70;99.90
46217;DHT22;47258;59.424;13.482;2022-11-24T10:34:26;2.60;99.90
46217;DHT22;47258;59.424;13.482;2022-11-24T10:36:59;2.60;99.90
46217;DHT22;47258;59.424;13.482;2022-11-24T10:39:33;2.60;99.90
46217;DHT22;47258;59.424;13.482;2022-11-24T10:42:05;2.60;99.90
46217;DHT22;47258;59.424;13.482;2022-11-24T10:44:33;2.60;99.90
46217;DHT22;47258;59.424;13.482;2022-11-24T10:47:00;2.60;99.90
46217;DHT22;47258;59.424;13.482;2022-11-24T10:49:30;2.70;99.90
46217;DHT22;47258;59.424;13.482;2022-11-24T10:52:04;2.60;99.90
46217;DHT22;47258;59.424;13.482;2022-11-24T10:54:34;2.70;99.90
46217;DHT22;47258;59.424;13.482;2022-11-24T10:57:01;2.60;99.90
46217;DHT22;47258;59.424;13.482;2022-11-24T10:59:35;2.60;99.90
46217;DHT22;47258;59.424;13.482;2022-11-24T11:02:08;2.60;99.90
46217;DHT22;47258;59.424;13.482;2022-11-24T11:04:52;2.60;99.90
46217;DHT22;47258;59.424;13.482;2022-11-24T11:07:20;2.60;99.90
46217;DHT22;47258;59.424;13.482;2022-11-24T11:09:49;2.60;99.90
46217;DHT22;47258;59.424;13.482;2022-11-24T11:12:20;2.70;99.90
46217;DHT22;47258;59.424;13.482;2022-11-24T11:14:48;2.70;99.90
46217;DHT22;47258;59.424;13.482;2022-11-24T11:17:32;2.70;99.90
46217;DHT22;47258;59.424;13.482;2022-11-24T11:20:04;2.80;99.90
46217;DHT22;47258;59.424;13.482;2022-11-24T11:22:34;2.80;99.90
46217;DHT22;47258;59.424;13.482;2022-11-24T11:25:14;2.80;99.90
46217;DHT22;47258;59.424;13.482;2022-11-24T11:27:43;2.80;99.90
46217;DHT22;47258;59.424;13.482;2022-11-24T11:30:19;2.80;99.90
46217;DHT22;47258;59.424;13.482;2022-11-24T11:32:53;2.90;99.90
46217;DHT22;47258;59.424;13.482;2022-11-24T11:35:21;2.80;99.90
46217;DHT22;47258;59.424;13.482;2022-11-24T11:37:52;2.80;99.90
46217;DHT22;47258;59.424;13.482;2022-11-24T11:40:25;2.80;99.90
46217;DHT22;47258;59.424;13.482;2022-11-24T11:42:55;2.80;99.90
46217;DHT22;47258;59.424;13.482;2022-11-24T11:45:28;2.80;99.90
46217;DHT22;47258;59.424;13.482;2022-11-24T11:48:07;2.80;99.90
46217;DHT22;47258;59.424;13.482;2022-11-24T11:50:42;2.80;99.90
46217;DHT22;47258;59.424;13.482;2022-11-24T11:53:18;2.80;99.90
46217;DHT22;47258;59.424;13.482;2022-11-24T11:56:05;2.80;99.90
46217;DHT22;47258;59.424;13.482;2022-11-24T12:04:40;2.80;99.90
46217;DHT22;47258;59.424;13.482;2022-11-24T12:07:24;2.80;99.90
46217;DHT22;47258;59.424;13.482;2022-11-24T12:09:58;2.80;99.90
46217;DHT22;47258;59.424;13.482;2022-11-24T12:12:47;2.80;99.90
46217;DHT22;47258;59.424;13.482;2022-11-24T12:15:21;2.80;99.90
46217;DHT22;47258;59.424;13.482;2022-11-24T12:17:54;2.80;99.90
46217;DHT22;47258;59.424;13.482;2022-11-24T12:20:35;2.80;99.90
46217;DHT22;47258;59.424;13.482;2022-11-24T12:23:14;2.70;99.90
46217;DHT22;47258;59.424;13.482;2022-11-24T12:25:48;2.70;99.90
46217;DHT22;47258;59.424;13.482;2022-11-24T12:28:28;2.70;99.90
46217;DHT22;47258;59.424;13.482;2022-11-24T12:31:04;2.80;99.90
46217;DHT22;47258;59.424;13.482;2022-11-24T12:36:52;2.80;99.90
46217;DHT22;47258;59.424;13.482;2022-11-24T12:39:29;2.70;99.90
46217;DHT22;47258;59.424;13.482;2022-11-24T12:42:07;2.70;99.90
46217;DHT22;47258;59.424;13.482;2022-11-24T12:45:03;2.70;99.90
46217;DHT22;47258;59.424;13.482;2022-11-24T12:47:37;2.70;99.90
46217;DHT22;47258;59.424;13.482;2022-11-24T12:50:08;2.80;99.90
46217;DHT22;47258;59.424;13.482;2022-11-24T12:52:41;2.80;99.90
46217;DHT22;47258;59.424;13.482;2022-11-24T12:55:15;2.80;99.90
46217;DHT22;47258;59.424;13.482;2022-11-24T12:57:47;2.90;99.90
46217;DHT22;47258;59.424;13.482;2022-11-24T13:00:20;2.90;99.90
46217;DHT22;47258;59.424;13.482;2022-11-24T13:03:05;2.90;99.90
46217;DHT22;47258;59.424;13.482;2022-11-24T13:05:42;2.90;99.90
46217;DHT22;47258;59.424;13.482;2022-11-24T13:08:13;2.80;99.90
46217;DHT22;47258;59.424;13.482;2022-11-24T13:10:40;2.80;99.90
46217;DHT22;47258;59.424;13.482;2022-11-24T13:13:09;2.80;99.90
46217;DHT22;47258;59.424;13.482;2022-11-24T13:18:46;2.80;99.90
46217;DHT22;47258;59.424;13.482;2022-11-24T13:21:45;2.70;99.90
46217;DHT22;47258;59.424;13.482;2022-11-24T13:24:26;2.70;99.90
46217;DHT22;47258;59.424;13.482;2022-11-24T13:27:17;2.70;99.90
46217;DHT22;47258;59.424;13.482;2022-11-24T13:29:52;2.70;99.90
46217;DHT22;47258;59.424;13.482;2022-11-24T13:32:58;2.60;99.90
46217;DHT22;47258;59.424;13.482;2022-11-24T13:35:28;2.60;99.90
46217;DHT22;47258;59.424;13.482;2022-11-24T13:37:55;2.60;99.90
46217;DHT22;47258;59.424;13.482;2022-11-24T13:40:41;2.60;99.90
46217;DHT22;47258;59.424;13.482;2022-11-24T13:43:19;2.70;99.90
46217;DHT22;47258;59.424;13.482;2022-11-24T13:45:48;2.70;99.90
46217;DHT22;47258;59.424;13.482;2022-11-24T13:51:21;2.70;99.90
46217;DHT22;47258;59.424;13.482;2022-11-24T13:53:49;2.70;99.90
46217;DHT22;47258;59.424;13.482;2022-11-24T13:56:23;2.70;99.90
46217;DHT22;47258;59.424;13.482;2022-11-24T13:58:52;2.70;99.90
46217;DHT22;47258;59.424;13.482;2022-11-24T14:01:22;2.70;99.90
46217;DHT22;47258;59.424;13.482;2022-11-24T14:03:57;2.70;99.90
46217;DHT22;47258;59.424;13.482;2022-11-24T14:06:30;2.80;99.90
46217;DHT22;47258;59.424;13.482;2022-11-24T14:08:59;2.80;99.90
46217;DHT22;47258;59.424;13.482;2022-11-24T14:11:27;2.90;99.90
46217;DHT22;47258;59.424;13.482;2022-11-24T14:13:54;2.80;99.90
46217;DHT22;47258;59.424;13.482;2022-11-24T14:16:22;2.90;99.90
46217;DHT22;47258;59.424;13.482;2022-11-24T14:18:51;2.90;99.90
46217;DHT22;47258;59.424;13.482;2022-11-24T14:21:29;2.80;99.90
46217;DHT22;47258;59.424;13.482;2022-11-24T14:23:59;2.80;99.90
46217;DHT22;47258;59.424;13.482;2022-11-24T14:26:31;2.80;99.90
46217;DHT22;47258;59.424;13.482;2022-11-24T14:29:04;2.70;99.90
46217;DHT22;47258;59.424;13.482;2022-11-24T14:31:32;2.70;99.90
46217;DHT22;47258;59.424;13.482;2022-11-24T14:34:17;2.70;99.90
46217;DHT22;47258;59.424;13.482;2022-11-24T14:36:47;2.70;99.90
46217;DHT22;47258;59.424;13.482;2022-11-24T14:39:15;2.70;99.90
46217;DHT22;47258;59.424;13.482;2022-11-24T14:41:49;2.60;99.90
46217;DHT22;47258;59.424;13.482;2022-11-24T14:44:19;2.60;99.90
46217;DHT22;47258;59.424;13.482;2022-11-24T14:46:48;2.60;99.90
46217;DHT22;47258;59.424;13.482;2022-11-24T14:49:17;2.60;99.90
46217;DHT22;47258;59.424;13.482;2022-11-24T14:51:50;2.60;99.90
46217;DHT22;47258;59.424;13.482;2022-11-24T14:54:20;2.60;99.90
46217;DHT22;47258;59.424;13.482;2022-11-24T14:56:57;2.60;99.90
46217;DHT22;47258;59.424;13.482;2022-11-24T14:59:26;2.60;99.90
46217;DHT22;47258;59.424;13.482;2022-11-24T15:01:54;2.60;99.90
46217;DHT22;47258;59.424;13.482;2022-11-24T15:04:22;2.60;99.90
46217;DHT22;47258;59.424;13.482;2022-11-24T15:07:11;2.70;99.90
46217;DHT22;47258;59.424;13.482;2022-11-24T15:09:48;2.60;99.90
46217;DHT22;47258;59.424;13.482;2022-11-24T15:12:23;2.70;99.90
46217;DHT22;47258;59.424;13.482;2022-11-24T15:14:54;2.70;99.90
46217;DHT22;47258;59.424;13.482;2022-11-24T15:17:24;2.70;99.90
46217;DHT22;47258;59.424;13.482;2022-11-24T15:19:54;2.70;99.90
46217;DHT22;47258;59.424;13.482;2022-11-24T15:22:42;2.70;99.90
46217;DHT22;47258;59.424;13.482;2022-11-24T15:25:27;2.70;99.90
46217;DHT22;47258;59.424;13.482;2022-11-24T15:27:55;2.70;99.90
46217;DHT22;47258;59.424;13.482;2022-11-24T15:30:22;2.60;99.90
46217;DHT22;47258;59.424;13.482;2022-11-24T15:32:50;2.60;99.90
46217;DHT22;47258;59.424;13.482;2022-11-24T15:35:17;2.60;99.90
46217;DHT22;47258;59.424;13.482;2022-11-24T15:37:47;2.60;99.90
46217;DHT22;47258;59.424;13.482;2022-11-24T15:40:14;2.50;99.90
46217;DHT22;47258;59.424;13.482;2022-11-24T15:42:43;2.60;99.90
46217;DHT22;47258;59.424;13.482;2022-11-24T15:45:11;2.60;99.90
46217;DHT22;47258;59.424;13.482;2022-11-24T15:47:38;2.70;99.90
46217;DHT22;47258;59.424;13.482;2022-11-24T15:50:06;2.70;99.90
46217;DHT22;47258;59.424;13.482;2022-11-24T15:52:33;2.80;99.90
46217;DHT22;47258;59.424;13.482;2022-11-24T15:55:01;2.70;99.90
46217;DHT22;47258;59.424;13.482;2022-11-24T15:57:29;2.70;99.90
46217;DHT22;47258;59.424;13.482;2022-11-24T15:59:56;2.80;99.90
46217;DHT22;47258;59.424;13.482;2022-11-24T16:02:23;2.80;99.90
46217;DHT22;47258;59.424;13.482;2022-11-24T16:04:50;2.70;99.90